createdAt,value
2019-05-16T00:01:31.176Z,7.70
2019-05-16T00:04:02.314Z,7.70
2019-05-16T00:06:32.971Z,7.70
2019-05-16T00:09:04.879Z,7.80
2019-05-16T00:11:34.913Z,7.70
2019-05-16T00:14:05.510Z,7.70
2019-05-16T00:16:37.854Z,7.70
2019-05-16T00:19:09.055Z,7.80
2019-05-16T00:21:39.673Z,7.80
2019-05-16T00:24:09.899Z,7.80
2019-05-16T00:26:40.165Z,7.80
2019-05-16T00:29:11.253Z,7.80
2019-05-16T00:31:41.494Z,7.80
2019-05-16T00:34:11.875Z,7.80
2019-05-16T00:36:42.059Z,7.80
2019-05-16T00:39:12.224Z,7.80
2019-05-16T00:41:42.750Z,7.80
2019-05-16T00:44:12.849Z,7.80
2019-05-16T00:46:42.894Z,7.70
2019-05-16T00:49:13.017Z,7.70
2019-05-16T00:51:43.359Z,7.70
2019-05-16T00:54:13.807Z,7.70
2019-05-16T00:56:45.007Z,7.70
2019-05-16T00:59:18.249Z,7.70
2019-05-16T01:01:50.094Z,7.70
2019-05-16T01:04:22.245Z,7.70
2019-05-16T01:06:52.761Z,7.70
2019-05-16T01:09:23.009Z,7.60
2019-05-16T01:11:53.405Z,7.70
2019-05-16T01:14:23.533Z,7.70
2019-05-16T01:16:54.176Z,7.60
2019-05-16T01:19:24.240Z,7.60
2019-05-16T01:21:54.621Z,7.70
2019-05-16T01:24:25.548Z,7.70
2019-05-16T01:26:57.764Z,7.70
2019-05-16T01:29:28.346Z,7.70
2019-05-16T01:31:59.083Z,7.70
2019-05-16T01:34:29.912Z,7.70
2019-05-16T01:37:00.230Z,7.70
2019-05-16T01:39:30.779Z,7.70
2019-05-16T01:42:00.841Z,7.70
2019-05-16T01:44:31.216Z,7.70
2019-05-16T01:47:01.723Z,7.70
2019-05-16T01:49:31.857Z,7.70
2019-05-16T01:52:02.408Z,7.60
2019-05-16T01:54:32.832Z,7.70
2019-05-16T01:57:02.906Z,7.70
2019-05-16T01:59:32.887Z,7.70
2019-05-16T02:02:02.990Z,7.60
2019-05-16T02:04:33.069Z,7.60
2019-05-16T02:07:03.176Z,7.70
2019-05-16T02:09:33.342Z,7.70
2019-05-16T02:12:03.512Z,7.50
2019-05-16T02:14:35.916Z,7.50
2019-05-16T02:17:08.642Z,7.50
2019-05-16T02:19:38.958Z,7.40
2019-05-16T02:22:09.372Z,7.50
2019-05-16T02:24:39.807Z,7.50
2019-05-16T02:27:09.866Z,7.50
2019-05-16T02:29:40.218Z,7.50
2019-05-16T02:32:11.528Z,7.50
2019-05-16T02:34:42.488Z,7.50
2019-05-16T02:37:24.469Z,7.50
2019-05-16T02:39:44.699Z,7.50
2019-05-16T02:42:14.889Z,7.50
2019-05-16T02:44:44.960Z,7.50
2019-05-16T02:47:15.372Z,7.50
2019-05-16T02:49:45.794Z,7.40
2019-05-16T02:52:15.901Z,7.40
2019-05-16T02:54:45.985Z,7.40
2019-05-16T02:57:16.077Z,7.40
2019-05-16T02:59:46.126Z,7.40
2019-05-16T03:02:16.511Z,7.40
2019-05-16T03:04:46.916Z,7.40
2019-05-16T03:07:36.407Z,7.40
2019-05-16T03:09:51.544Z,7.40
2019-05-16T03:12:25.389Z,7.40
2019-05-16T03:14:56.201Z,7.40
2019-05-16T03:17:31.745Z,7.40
2019-05-16T03:20:02.458Z,7.50
2019-05-16T03:22:33.566Z,7.40
2019-05-16T03:25:04.939Z,7.40
2019-05-16T03:27:35.324Z,7.40
2019-05-16T03:30:06.564Z,7.40
2019-05-16T03:32:37.501Z,7.40
2019-05-16T03:35:14.515Z,7.40
2019-05-16T03:37:53.981Z,7.50
2019-05-16T03:40:15.843Z,7.50
2019-05-16T03:42:46.539Z,7.40
2019-05-16T03:45:16.556Z,7.40
2019-05-16T03:47:46.961Z,7.40
2019-05-16T03:50:17.393Z,7.40
2019-05-16T03:52:50.782Z,7.40
2019-05-16T03:55:21.382Z,7.40
2019-05-16T03:57:51.787Z,7.40
2019-05-16T04:00:45.038Z,7.40
2019-05-16T04:03:11.608Z,7.50
2019-05-16T04:05:42.664Z,7.50
2019-05-16T04:08:19.560Z,7.50
2019-05-16T04:10:44.865Z,7.50
2019-05-16T04:13:15.350Z,7.50
2019-05-16T04:15:45.510Z,7.50
2019-05-16T04:18:15.971Z,7.60
2019-05-16T04:20:46.495Z,7.60
2019-05-16T04:23:16.508Z,7.50
2019-05-16T04:25:46.916Z,7.50
2019-05-16T04:28:16.989Z,7.60
2019-05-16T04:30:50.500Z,7.70
2019-05-16T04:33:22.129Z,7.70
2019-05-16T04:35:53.001Z,7.80
2019-05-16T04:38:34.308Z,7.80
2019-05-16T04:40:56.286Z,7.90
2019-05-16T04:43:26.332Z,7.90
2019-05-16T04:45:56.430Z,7.90
2019-05-16T04:48:26.476Z,7.90
2019-05-16T04:50:56.874Z,8.00
2019-05-16T04:53:27.298Z,8.00
2019-05-16T04:56:01.403Z,8.00
2019-05-16T04:58:31.664Z,8.00
2019-05-16T05:01:03.036Z,8.10
2019-05-16T05:03:33.100Z,8.00
2019-05-16T05:06:03.258Z,8.10
2019-05-16T05:08:49.238Z,8.10
2019-05-16T05:11:06.123Z,8.20
2019-05-16T05:13:36.449Z,8.30
2019-05-16T05:16:06.612Z,8.40
2019-05-16T05:18:37.314Z,8.40
2019-05-16T05:21:07.422Z,8.50
2019-05-16T05:23:40.508Z,8.40
2019-05-16T05:26:10.755Z,8.40
2019-05-16T05:28:41.427Z,8.40
2019-05-16T05:31:11.945Z,8.40
2019-05-16T05:33:43.989Z,8.40
2019-05-16T05:36:14.426Z,8.50
2019-05-16T05:38:46.758Z,8.60
2019-05-16T05:41:16.816Z,8.70
2019-05-16T05:43:47.203Z,8.80
2019-05-16T05:46:20.457Z,8.90
2019-05-16T05:48:50.593Z,8.90
2019-05-16T05:51:20.887Z,9.00
2019-05-16T05:53:51.138Z,9.00
2019-05-16T05:56:22.013Z,9.10
2019-05-16T05:58:52.539Z,9.10
2019-05-16T06:01:22.650Z,9.10
2019-05-16T06:03:52.800Z,9.40
2019-05-16T06:06:23.503Z,9.50
2019-05-16T06:08:53.517Z,9.60
2019-05-16T06:11:23.957Z,9.60
2019-05-16T06:13:55.276Z,9.60
2019-05-16T06:16:25.327Z,9.40
2019-05-16T06:18:56.815Z,9.60
2019-05-16T06:21:27.619Z,9.70
2019-05-16T06:23:59.918Z,9.70
2019-05-16T06:26:30.312Z,9.90
2019-05-16T06:29:00.743Z,10.20
2019-05-16T06:31:31.661Z,10.60
2019-05-16T06:34:07.980Z,10.80
2019-05-16T06:36:33.825Z,11.00
2019-05-16T06:39:06.206Z,11.10
2019-05-16T06:41:36.366Z,11.20
2019-05-16T06:44:06.468Z,11.40
2019-05-16T06:46:43.899Z,11.50
2019-05-16T06:49:10.339Z,11.60
2019-05-16T06:51:42.992Z,11.60
2019-05-16T06:54:13.393Z,11.70
2019-05-16T06:56:43.533Z,12.00
2019-05-16T06:59:13.902Z,12.00
2019-05-16T07:01:44.390Z,11.80
2019-05-16T07:04:15.707Z,11.50
2019-05-16T07:06:58.081Z,11.50
2019-05-16T07:09:17.480Z,11.60
2019-05-16T07:11:50.306Z,11.70
2019-05-16T07:14:22.810Z,11.70
2019-05-16T07:16:52.324Z,11.60
2019-05-16T07:19:22.366Z,11.70
2019-05-16T07:21:53.014Z,11.90
2019-05-16T07:24:23.851Z,12.10
2019-05-16T07:26:54.437Z,12.30
2019-05-16T07:29:24.820Z,12.70
2019-05-16T07:31:54.879Z,12.80
2019-05-16T07:34:25.251Z,12.60
2019-05-16T07:36:55.766Z,12.60
2019-05-16T07:39:25.887Z,13.00
2019-05-16T07:41:56.634Z,13.20
2019-05-16T07:44:26.953Z,13.20
2019-05-16T07:46:57.016Z,13.50
2019-05-16T07:49:27.412Z,13.90
2019-05-16T07:52:00.416Z,13.90
2019-05-16T07:54:34.124Z,13.80
2019-05-16T07:57:16.058Z,13.60
2019-05-16T07:59:33.514Z,13.10
2019-05-16T08:02:03.681Z,12.70
2019-05-16T08:04:34.062Z,12.60
2019-05-16T08:07:05.806Z,11.90
2019-05-16T08:09:37.011Z,11.60
2019-05-16T08:12:07.052Z,11.50
2019-05-16T08:14:37.215Z,11.50
2019-05-16T08:17:10.448Z,11.70
2019-05-16T08:19:40.212Z,12.20
2019-05-16T08:22:11.229Z,12.70
2019-05-16T08:24:41.674Z,12.90
2019-05-16T08:27:12.348Z,12.90
2019-05-16T08:29:42.926Z,12.60
2019-05-16T08:32:13.454Z,12.30
2019-05-16T08:34:43.906Z,12.40
2019-05-16T08:37:33.898Z,12.50
2019-05-16T08:39:46.114Z,12.50
2019-05-16T08:42:16.623Z,12.80
2019-05-16T08:44:47.176Z,13.10
2019-05-16T08:47:21.071Z,13.20
2019-05-16T08:49:52.147Z,13.30
2019-05-16T08:54:53.519Z,13.70
2019-05-16T08:57:31.204Z,13.50
2019-05-16T08:59:55.767Z,13.40
2019-05-16T09:05:04.371Z,13.20
2019-05-16T09:07:31.826Z,13.40
2019-05-16T09:10:02.175Z,13.20
2019-05-16T09:10:32.872Z,13.20
2019-05-16T09:12:32.330Z,13.30
2019-05-16T09:15:02.392Z,13.30
2019-05-16T09:17:32.824Z,13.20
2019-05-16T09:18:30.746Z,13.50
2019-05-16T09:20:02.889Z,13.10
2019-05-16T09:22:32.970Z,13.20
2019-05-16T09:25:08.061Z,13.20
2019-05-16T09:27:38.691Z,13.00
2019-05-16T09:30:09.539Z,13.00
2019-05-16T09:32:42.819Z,12.70
2019-05-16T09:35:12.132Z,12.60
2019-05-16T09:37:42.298Z,12.20
2019-05-16T09:40:12.409Z,12.10
2019-05-16T09:42:43.364Z,11.90
2019-05-16T09:45:16.973Z,11.90
2019-05-16T09:47:48.214Z,11.90
2019-05-16T09:50:18.034Z,11.90
2019-05-16T09:52:49.383Z,11.90
2019-05-16T09:55:19.985Z,11.80
2019-05-16T09:57:50.542Z,12.00
2019-05-16T10:00:23.706Z,12.20
2019-05-16T10:02:57.774Z,12.50
2019-05-16T10:05:26.878Z,12.90
2019-05-16T10:07:57.581Z,13.10
2019-05-16T10:10:27.886Z,12.90
2019-05-16T10:12:58.295Z,12.70
2019-05-16T10:15:28.462Z,12.50
2019-05-16T10:17:58.948Z,12.60
2019-05-16T10:20:29.410Z,12.70
2019-05-16T10:23:00.169Z,13.10
2019-05-16T10:25:30.677Z,13.30
2019-05-16T10:28:01.250Z,13.40
2019-05-16T10:30:32.343Z,13.40
2019-05-16T10:33:02.491Z,12.90
2019-05-16T10:35:32.534Z,13.00
2019-05-16T10:38:03.032Z,12.90
2019-05-16T10:40:36.860Z,13.00
2019-05-16T10:43:07.508Z,13.10
2019-05-16T10:45:38.098Z,13.10
2019-05-16T10:48:09.021Z,13.00
2019-05-16T10:50:39.249Z,12.90
2019-05-16T10:53:32.533Z,12.80
2019-05-16T10:55:41.194Z,12.80
2019-05-16T10:58:11.759Z,12.80
2019-05-16T11:01:07.887Z,12.50
2019-05-16T11:03:17.098Z,12.30
2019-05-16T11:06:01.682Z,12.20
2019-05-16T11:08:19.735Z,11.70
2019-05-16T11:10:50.326Z,11.30
2019-05-16T11:13:20.760Z,11.00
2019-05-16T11:15:51.197Z,10.70
2019-05-16T11:18:21.350Z,10.50
2019-05-16T11:20:51.963Z,10.50
2019-05-16T11:23:23.763Z,10.30
2019-05-16T11:25:55.492Z,10.30
2019-05-16T11:28:26.935Z,10.30
2019-05-16T11:31:03.105Z,10.30
2019-05-16T11:33:29.394Z,10.10
2019-05-16T11:35:59.882Z,9.80
2019-05-16T11:38:30.317Z,9.60
2019-05-16T11:41:01.042Z,9.50
2019-05-16T11:43:31.173Z,9.40
2019-05-16T11:46:01.524Z,9.20
2019-05-16T11:48:31.904Z,9.00
2019-05-16T11:51:02.275Z,9.00
2019-05-16T11:53:32.406Z,8.90
2019-05-16T11:56:02.467Z,8.90
2019-05-16T11:58:34.000Z,9.00
2019-05-16T12:01:07.288Z,9.20
2019-05-16T12:03:37.364Z,9.30
2019-05-16T12:06:10.239Z,9.20
2019-05-16T12:08:39.873Z,9.20
2019-05-16T12:11:10.035Z,9.20
2019-05-16T12:13:40.790Z,9.20
2019-05-16T12:16:10.885Z,9.20
2019-05-16T12:18:41.261Z,9.00
2019-05-16T12:21:11.350Z,8.90
2019-05-16T12:23:41.701Z,8.90
2019-05-16T12:26:12.184Z,8.80
2019-05-16T12:28:42.581Z,8.60
2019-05-16T12:31:13.198Z,8.50
2019-05-16T12:33:43.714Z,8.40
2019-05-16T12:36:14.561Z,8.40
2019-05-16T12:38:46.745Z,8.40
2019-05-16T12:41:17.066Z,8.50
2019-05-16T12:43:53.456Z,8.50
2019-05-16T12:46:21.278Z,8.50
2019-05-16T12:48:51.941Z,8.60
2019-05-16T12:51:21.987Z,8.90
2019-05-16T12:53:52.123Z,9.10
2019-05-16T12:56:22.157Z,9.20
2019-05-16T12:58:52.211Z,9.00
2019-05-16T13:01:30.774Z,9.00
2019-05-16T13:03:54.282Z,9.20
2019-05-16T13:06:24.472Z,9.20
2019-05-16T13:08:54.504Z,9.20
2019-05-16T13:11:26.999Z,9.40
2019-05-16T13:14:05.728Z,9.40
2019-05-16T13:16:29.674Z,9.30
2019-05-16T13:18:59.862Z,9.20
2019-05-16T13:21:30.044Z,9.20
2019-05-16T13:24:00.544Z,9.30
2019-05-16T13:26:30.975Z,9.20
2019-05-16T13:29:01.370Z,9.10
2019-05-16T13:31:31.454Z,9.10
2019-05-16T13:34:01.582Z,9.10
2019-05-16T13:36:32.068Z,9.00
2019-05-16T13:39:02.465Z,8.90
2019-05-16T13:41:34.439Z,9.00
2019-05-16T13:44:17.648Z,9.10
2019-05-16T13:46:37.336Z,9.20
2019-05-16T13:49:07.560Z,9.00
2019-05-16T13:51:38.014Z,8.80
2019-05-16T13:54:08.164Z,8.80
2019-05-16T13:56:38.181Z,8.80
2019-05-16T13:59:09.655Z,8.80
2019-05-16T14:01:39.771Z,8.80
2019-05-16T14:04:10.238Z,8.90
2019-05-16T14:06:41.759Z,9.00
2019-05-16T14:09:12.867Z,9.00
2019-05-16T14:11:42.997Z,8.70
2019-05-16T14:14:13.583Z,8.60
2019-05-16T14:16:43.735Z,8.50
2019-05-16T14:19:13.841Z,8.60
2019-05-16T14:21:47.578Z,8.60
2019-05-16T14:24:18.170Z,8.70
2019-05-16T14:26:48.606Z,8.40
2019-05-16T14:29:19.210Z,8.40
2019-05-16T14:31:49.775Z,8.40
2019-05-16T14:34:19.911Z,8.50
2019-05-16T14:36:50.403Z,8.50
2019-05-16T14:39:20.626Z,8.40
2019-05-16T14:41:50.675Z,8.30
2019-05-16T14:44:21.273Z,8.40
2019-05-16T14:46:52.107Z,8.40
2019-05-16T14:49:24.179Z,8.50
2019-05-16T14:51:57.863Z,8.50
2019-05-16T14:54:26.951Z,8.50
2019-05-16T14:57:01.144Z,8.50
2019-05-16T14:59:30.876Z,8.50
2019-05-16T15:02:01.014Z,8.70
2019-05-16T15:04:31.129Z,8.80
2019-05-16T15:07:02.415Z,8.80
2019-05-16T15:09:32.887Z,8.80
2019-05-16T15:12:03.394Z,8.80
2019-05-16T15:14:33.436Z,9.00
2019-05-16T15:17:03.481Z,9.20
2019-05-16T15:19:34.070Z,9.20
2019-05-16T15:22:04.158Z,9.30
2019-05-16T15:24:36.901Z,9.30
2019-05-16T15:27:08.262Z,9.20
2019-05-16T15:29:38.278Z,9.00
2019-05-16T15:32:09.410Z,9.10
2019-05-16T15:34:39.613Z,9.10
2019-05-16T15:37:10.483Z,9.10
2019-05-16T15:39:41.312Z,9.10
2019-05-16T15:42:11.857Z,8.90
2019-05-16T15:44:42.281Z,8.90
2019-05-16T15:47:13.007Z,8.90
2019-05-16T15:49:43.323Z,8.90
2019-05-16T15:52:13.393Z,9.00
2019-05-16T15:54:44.124Z,8.90
2019-05-16T15:57:17.456Z,8.80
2019-05-16T15:59:47.033Z,8.80
2019-05-16T16:02:17.718Z,8.70
2019-05-16T16:04:47.907Z,8.80
2019-05-16T16:07:18.339Z,8.70
2019-05-16T16:09:48.781Z,8.70
2019-05-16T16:12:18.922Z,8.70
2019-05-16T16:14:49.342Z,8.60
2019-05-16T16:17:19.409Z,8.60
2019-05-16T16:19:49.461Z,8.70
2019-05-16T16:22:19.903Z,8.70
2019-05-16T16:24:50.337Z,8.80
2019-05-16T16:27:20.849Z,8.80
2019-05-16T16:29:51.388Z,8.90
2019-05-16T16:32:22.562Z,8.80
2019-05-16T16:34:52.708Z,8.80
2019-05-16T16:37:22.760Z,8.80
2019-05-16T16:39:53.149Z,8.70
2019-05-16T16:42:27.095Z,8.70
2019-05-16T16:44:56.649Z,8.70
2019-05-16T16:47:27.016Z,8.70
2019-05-16T16:49:59.273Z,8.80
2019-05-16T16:52:29.066Z,8.70
2019-05-16T16:54:59.557Z,8.60
2019-05-16T16:57:30.041Z,8.70
2019-05-16T17:00:00.132Z,8.70
2019-05-16T17:02:30.382Z,8.60
2019-05-16T17:05:02.734Z,8.60
2019-05-16T17:07:37.007Z,8.50
2019-05-16T17:10:07.926Z,8.40
2019-05-16T17:12:42.525Z,8.30
2019-05-16T17:15:10.785Z,8.30
2019-05-16T17:17:41.232Z,8.30
2019-05-16T17:20:11.553Z,8.30
2019-05-16T17:22:41.654Z,8.30
2019-05-16T17:25:13.677Z,8.30
2019-05-16T17:27:46.671Z,8.30
2019-05-16T17:30:18.382Z,8.40
2019-05-16T17:32:50.306Z,8.40
2019-05-16T17:35:20.776Z,8.40
2019-05-16T17:37:50.891Z,8.40
2019-05-16T17:40:21.100Z,8.40
2019-05-16T17:42:51.610Z,8.50
2019-05-16T17:45:26.576Z,8.50
2019-05-16T17:47:57.165Z,8.50
2019-05-16T17:50:27.244Z,8.50
2019-05-16T17:52:57.849Z,8.50
2019-05-16T17:55:28.494Z,8.40
2019-05-16T17:58:00.516Z,8.30
2019-05-16T18:00:31.030Z,8.20
2019-05-16T18:03:01.936Z,8.00
2019-05-16T18:05:32.093Z,8.00
2019-05-16T18:08:02.763Z,8.00
2019-05-16T18:10:32.882Z,8.00
2019-05-16T18:13:03.304Z,8.00
2019-05-16T18:15:33.470Z,8.00
2019-05-16T18:18:03.589Z,8.10
2019-05-16T18:20:33.775Z,8.00
2019-05-16T18:23:06.750Z,8.10
2019-05-16T18:25:36.830Z,8.00
2019-05-16T18:28:08.319Z,7.90
2019-05-16T18:30:38.375Z,8.00
2019-05-16T18:33:08.922Z,7.90
2019-05-16T18:35:39.030Z,7.90
2019-05-16T18:38:09.382Z,7.90
2019-05-16T18:40:39.819Z,7.90
2019-05-16T18:43:09.909Z,8.00
2019-05-16T18:45:40.411Z,8.00
2019-05-16T18:48:10.863Z,8.10
2019-05-16T18:50:41.324Z,8.10
2019-05-16T18:53:12.656Z,8.10
2019-05-16T18:55:42.809Z,8.10
2019-05-16T18:58:12.861Z,8.10
2019-05-16T19:00:43.435Z,8.10
2019-05-16T19:03:13.526Z,8.10
2019-05-16T19:05:46.200Z,8.10
2019-05-16T19:08:16.770Z,8.10
2019-05-16T19:10:47.412Z,8.10
2019-05-16T19:13:17.772Z,8.20
2019-05-16T19:15:49.348Z,8.20
2019-05-16T19:18:19.908Z,8.20
2019-05-16T19:20:49.987Z,8.20
2019-05-16T19:23:20.346Z,8.20
2019-05-16T19:25:50.899Z,8.10
2019-05-16T19:28:20.909Z,8.00
2019-05-16T19:30:52.248Z,7.90
2019-05-16T19:33:22.334Z,7.90
2019-05-16T19:35:52.359Z,8.00
2019-05-16T19:38:22.814Z,7.90
2019-05-16T19:40:52.987Z,8.00
2019-05-16T19:43:23.659Z,7.90
2019-05-16T19:45:54.115Z,7.90
2019-05-16T19:48:26.519Z,7.90
2019-05-16T19:50:56.936Z,7.90
2019-05-16T19:53:27.381Z,8.00
2019-05-16T19:55:58.491Z,8.00
2019-05-16T19:58:31.074Z,8.10
2019-05-16T20:01:01.065Z,8.10
2019-05-16T20:03:31.147Z,8.10
2019-05-16T20:06:01.512Z,8.10
2019-05-16T20:08:31.519Z,8.10
2019-05-16T20:11:01.732Z,8.10
2019-05-16T20:13:32.167Z,8.10
2019-05-16T20:16:02.570Z,8.10
2019-05-16T20:18:32.588Z,8.20
2019-05-16T20:21:02.699Z,8.20
2019-05-16T20:23:32.799Z,8.20
2019-05-16T20:26:03.208Z,8.20
2019-05-16T20:28:33.225Z,8.20
2019-05-16T20:31:03.717Z,8.20
2019-05-16T20:33:33.784Z,8.20
2019-05-16T20:36:03.851Z,8.20
2019-05-16T20:38:33.939Z,8.20
2019-05-16T20:41:03.969Z,8.20
2019-05-16T20:43:34.078Z,8.20
2019-05-16T20:46:04.371Z,8.30
2019-05-16T20:48:36.739Z,8.30
2019-05-16T20:51:07.219Z,8.30
2019-05-16T20:53:37.851Z,8.30
2019-05-16T20:56:07.964Z,8.40
2019-05-16T20:58:38.276Z,8.40
2019-05-16T21:01:08.350Z,8.30
2019-05-16T21:03:38.491Z,8.40
2019-05-16T21:06:09.070Z,8.40
2019-05-16T21:08:39.177Z,8.40
2019-05-16T21:11:09.635Z,8.40
2019-05-16T21:13:40.349Z,8.50
2019-05-16T21:16:10.402Z,8.50
2019-05-16T21:18:40.476Z,8.50
2019-05-16T21:21:10.932Z,8.60
2019-05-16T21:23:41.043Z,8.50
2019-05-16T21:26:11.426Z,8.60
2019-05-16T21:28:41.462Z,8.60
2019-05-16T21:31:11.482Z,8.60
2019-05-16T21:33:41.558Z,8.70
2019-05-16T21:36:12.300Z,8.60
2019-05-16T21:38:42.678Z,8.60
2019-05-16T21:41:12.776Z,8.60
2019-05-16T21:43:43.487Z,8.60
2019-05-16T21:46:14.258Z,8.60
2019-05-16T21:48:44.583Z,8.60
2019-05-16T21:51:19.418Z,8.50
2019-05-16T21:53:47.316Z,8.50
2019-05-16T21:56:17.776Z,8.60
2019-05-16T21:58:48.255Z,8.60
2019-05-16T22:01:21.522Z,8.60
2019-05-16T22:03:52.392Z,8.60
2019-05-16T22:06:22.448Z,8.60
2019-05-16T22:08:53.133Z,8.60
2019-05-16T22:11:23.502Z,8.60
2019-05-16T22:13:57.056Z,8.70
2019-05-16T22:16:28.458Z,8.70
2019-05-16T22:18:58.820Z,8.70
2019-05-16T22:21:29.160Z,8.70
2019-05-16T22:23:59.999Z,8.70
2019-05-16T22:26:30.308Z,8.70
2019-05-16T22:29:00.679Z,8.70
2019-05-16T22:31:30.814Z,8.80
2019-05-16T22:34:00.886Z,8.70
2019-05-16T22:36:31.435Z,8.80
2019-05-16T22:39:01.527Z,8.80
2019-05-16T22:41:33.415Z,8.80
2019-05-16T22:44:03.822Z,8.70
2019-05-16T22:46:34.478Z,8.70
2019-05-16T22:49:04.514Z,8.70
2019-05-16T22:51:36.597Z,8.70
2019-05-16T22:54:07.703Z,8.70
2019-05-16T22:56:38.318Z,8.70
2019-05-16T22:59:08.446Z,8.70
2019-05-16T23:01:38.887Z,8.70
2019-05-16T23:04:09.010Z,8.70
2019-05-16T23:06:39.414Z,8.70
2019-05-16T23:09:09.630Z,8.70
2019-05-16T23:11:39.748Z,8.70
2019-05-16T23:14:09.901Z,8.70
2019-05-16T23:16:40.316Z,8.70
2019-05-16T23:19:10.701Z,8.70
2019-05-16T23:21:40.781Z,8.70
2019-05-16T23:24:11.158Z,8.70
2019-05-16T23:26:41.564Z,8.70
2019-05-16T23:29:11.614Z,8.60
2019-05-16T23:31:42.384Z,8.60
2019-05-16T23:34:12.897Z,8.50
2019-05-16T23:36:43.721Z,8.50
2019-05-16T23:39:14.226Z,8.40
2019-05-16T23:41:44.292Z,8.40
2019-05-16T23:44:16.634Z,8.40
2019-05-16T23:46:47.212Z,8.40
2019-05-16T23:49:18.148Z,8.30
2019-05-16T23:51:50.169Z,8.30
2019-05-16T23:54:20.799Z,8.30
2019-05-16T23:56:51.525Z,8.40
2019-05-16T23:59:21.576Z,8.40
